createdAt,value
2022-08-05T00:00:49.052Z,23.15
2022-08-05T00:01:48.845Z,23.11
2022-08-05T00:02:51.080Z,23.04
2022-08-05T00:03:48.029Z,22.99
2022-08-05T00:04:47.995Z,22.96
2022-08-05T00:06:05.553Z,22.96
2022-08-05T00:06:51.641Z,22.96
2022-08-05T00:08:00.765Z,22.96
2022-08-05T00:08:48.961Z,22.93
2022-08-05T00:09:47.941Z,22.96
2022-08-05T00:10:47.902Z,22.94
2022-08-05T00:11:49.352Z,22.93
2022-08-05T00:12:56.860Z,22.89
2022-08-05T00:13:52.958Z,22.88
2022-08-05T00:14:47.847Z,22.86
2022-08-05T00:15:58.137Z,22.88
2022-08-05T00:16:52.896Z,22.89
2022-08-05T00:17:48.823Z,22.86
2022-08-05T00:18:48.207Z,22.86
2022-08-05T00:20:02.428Z,22.89
2022-08-05T00:20:48.952Z,22.85
2022-08-05T00:21:47.786Z,22.84
2022-08-05T00:22:59.600Z,22.81
2022-08-05T00:23:53.373Z,22.79
2022-08-05T00:24:48.724Z,22.75
2022-08-05T00:25:48.707Z,22.78
2022-08-05T00:26:50.756Z,22.79
2022-08-05T00:27:47.676Z,22.81
2022-08-05T00:28:47.686Z,22.79
2022-08-05T00:29:47.671Z,22.79
2022-08-05T00:30:47.656Z,22.81
2022-08-05T00:31:54.379Z,22.82
2022-08-05T00:32:48.636Z,22.81
2022-08-05T00:34:55.424Z,22.81
2022-08-05T00:35:04.623Z,22.81
2022-08-05T00:36:16.237Z,22.82
2022-08-05T00:37:10.420Z,22.79
2022-08-05T00:37:52.725Z,22.78
2022-08-05T00:38:48.570Z,22.75
2022-08-05T00:39:57.406Z,22.76
2022-08-05T00:40:51.921Z,22.78
2022-08-05T00:41:55.077Z,22.75
2022-08-05T00:42:49.990Z,22.72
2022-08-05T00:43:50.052Z,22.69
2022-08-05T00:44:47.469Z,22.69
2022-08-05T00:45:47.469Z,22.64
2022-08-05T00:46:47.436Z,22.61
2022-08-05T00:47:56.763Z,22.60
2022-08-05T00:48:50.886Z,22.61
2022-08-05T00:49:51.699Z,22.61
2022-08-05T00:50:47.402Z,22.61
2022-08-05T00:51:51.695Z,22.61
2022-08-05T00:52:47.377Z,22.61
2022-08-05T00:54:02.248Z,22.63
2022-08-05T00:54:48.359Z,22.64
2022-08-05T00:55:47.340Z,22.66
2022-08-05T00:56:51.831Z,22.66
2022-08-05T00:57:58.751Z,22.61
2022-08-05T00:58:48.321Z,22.61
2022-08-05T00:59:47.288Z,22.60
2022-08-05T01:00:47.335Z,22.59
2022-08-05T01:01:48.549Z,22.57
2022-08-05T01:02:47.242Z,22.57
2022-08-05T01:03:49.955Z,22.57
2022-08-05T01:04:50.400Z,22.56
2022-08-05T01:05:47.212Z,22.56
2022-08-05T01:06:48.743Z,22.56
2022-08-05T01:08:30.789Z,22.56
2022-08-05T01:08:48.189Z,22.57
2022-08-05T01:09:47.156Z,22.56
2022-08-05T01:10:52.503Z,22.54
2022-08-05T01:11:47.139Z,22.49
2022-08-05T01:13:03.246Z,22.52
2022-08-05T01:13:58.809Z,22.51
2022-08-05T01:14:48.086Z,22.49
2022-08-05T01:15:47.834Z,22.45
2022-08-05T01:16:47.053Z,22.45
2022-08-05T01:17:47.039Z,22.44
2022-08-05T01:18:53.749Z,22.42
2022-08-05T01:20:01.880Z,22.42
2022-08-05T01:20:48.011Z,22.36
2022-08-05T01:21:50.638Z,22.33
2022-08-05T01:22:47.276Z,22.33
2022-08-05T01:23:47.195Z,22.30
2022-08-05T01:24:47.955Z,22.27
2022-08-05T01:25:50.275Z,22.27
2022-08-05T01:26:48.010Z,22.24
2022-08-05T01:27:55.539Z,22.21
2022-08-05T01:28:47.896Z,22.20
2022-08-05T01:29:46.914Z,22.17
2022-08-05T01:30:53.905Z,22.15
2022-08-05T01:31:47.874Z,22.15
2022-08-05T01:32:46.861Z,22.11
2022-08-05T01:33:49.008Z,22.06
2022-08-05T01:34:46.842Z,22.05
2022-08-05T01:35:50.988Z,22.04
2022-08-05T01:36:47.807Z,22.05
2022-08-05T01:37:46.799Z,22.02
2022-08-05T01:38:48.422Z,22.01
2022-08-05T01:39:47.977Z,22.02
2022-08-05T01:40:46.746Z,22.04
2022-08-05T01:41:46.743Z,22.06
2022-08-05T01:42:46.730Z,22.06
2022-08-05T01:43:46.721Z,22.09
2022-08-05T01:44:54.374Z,22.11
2022-08-05T01:45:47.681Z,22.12
2022-08-05T01:46:47.664Z,22.14
2022-08-05T01:47:46.668Z,22.14
2022-08-05T01:48:49.742Z,22.14
2022-08-05T01:50:01.463Z,22.15
2022-08-05T01:50:51.149Z,22.12
2022-08-05T01:51:51.789Z,22.08
2022-08-05T01:52:49.628Z,22.04
2022-08-05T01:53:57.230Z,21.99
2022-08-05T01:54:47.595Z,21.89
2022-08-05T01:55:46.571Z,21.85
2022-08-05T01:58:10.807Z,21.85
2022-08-05T01:58:11.542Z,21.85
2022-08-05T01:58:47.870Z,21.85
2022-08-05T01:59:47.301Z,21.83
2022-08-05T02:00:46.498Z,21.83
2022-08-05T02:01:46.497Z,21.82
2022-08-05T02:02:53.636Z,21.77
2022-08-05T02:03:47.466Z,21.73
2022-08-05T02:04:49.588Z,21.68
2022-08-05T02:05:46.450Z,21.67
2022-08-05T02:06:46.414Z,21.66
2022-08-05T02:07:47.304Z,21.67
2022-08-05T02:08:57.883Z,21.66
2022-08-05T02:09:47.417Z,21.68
2022-08-05T02:10:46.365Z,21.71
2022-08-05T02:11:49.436Z,21.73
2022-08-05T02:12:47.353Z,21.73
2022-08-05T02:13:53.075Z,21.77
2022-08-05T02:14:47.910Z,21.81
2022-08-05T02:15:46.318Z,21.85
2022-08-05T02:16:46.316Z,21.83
2022-08-05T02:18:33.085Z,21.81
2022-08-05T02:18:47.278Z,21.82
2022-08-05T02:19:47.679Z,21.82
2022-08-05T02:20:46.957Z,21.82
2022-08-05T02:21:46.890Z,21.81
2022-08-05T02:22:46.219Z,21.82
2022-08-05T02:23:46.212Z,21.81
2022-08-05T02:24:46.189Z,21.82
2022-08-05T02:25:49.770Z,21.81
2022-08-05T02:26:51.895Z,21.82
2022-08-05T02:27:58.950Z,21.82
2022-08-05T02:28:47.133Z,21.86
2022-08-05T02:29:59.810Z,21.89
2022-08-05T02:30:54.202Z,21.91
2022-08-05T02:31:47.117Z,21.93
2022-08-05T02:32:46.086Z,21.83
2022-08-05T02:33:46.087Z,21.82
2022-08-05T02:34:46.081Z,21.82
2022-08-05T02:35:51.045Z,21.79
2022-08-05T02:36:47.042Z,21.75
2022-08-05T02:37:47.727Z,21.74
2022-08-05T02:38:53.613Z,21.75
2022-08-05T02:39:47.768Z,21.74
2022-08-05T02:40:45.978Z,21.71
2022-08-05T02:41:58.262Z,21.67
2022-08-05T02:42:52.721Z,21.64
2022-08-05T02:44:02.615Z,21.64
2022-08-05T02:44:46.934Z,21.64
2022-08-05T02:45:51.926Z,21.56
2022-08-05T02:46:58.399Z,21.52
2022-08-05T02:48:06.942Z,21.48
2022-08-05T02:48:46.889Z,21.38
2022-08-05T02:49:45.875Z,21.30
2022-08-05T02:50:45.880Z,21.24
2022-08-05T02:52:01.172Z,21.15
2022-08-05T02:52:46.827Z,21.03
2022-08-05T02:53:45.811Z,20.94
2022-08-05T02:54:51.133Z,20.90
2022-08-05T02:55:52.123Z,20.83
2022-08-05T02:56:46.804Z,20.75
2022-08-05T02:58:10.044Z,20.68
2022-08-05T02:58:51.229Z,20.61
2022-08-05T02:59:50.122Z,20.61
2022-08-05T03:00:45.965Z,20.51
2022-08-05T03:01:45.757Z,20.48
2022-08-05T03:02:45.691Z,20.42
2022-08-05T03:04:04.348Z,20.38
2022-08-05T03:04:46.696Z,20.33
2022-08-05T03:06:54.597Z,20.23
2022-08-05T03:06:55.503Z,20.25
2022-08-05T03:08:06.733Z,20.20
2022-08-05T03:08:46.613Z,20.12
2022-08-05T03:09:49.196Z,20.02
2022-08-05T03:11:02.383Z,20.01
2022-08-05T03:11:55.115Z,19.95
2022-08-05T03:12:46.581Z,19.97
2022-08-05T03:13:51.896Z,19.97
2022-08-05T03:14:46.546Z,19.92
2022-08-05T03:15:45.521Z,19.94
2022-08-05T03:16:45.582Z,20.01
2022-08-05T03:17:45.514Z,20.07
2022-08-05T03:18:45.496Z,20.16
2022-08-05T03:19:45.913Z,20.26
2022-08-05T03:20:48.891Z,20.34
2022-08-05T03:21:49.521Z,20.41
2022-08-05T03:22:46.869Z,20.50
2022-08-05T03:23:45.630Z,20.54
2022-08-05T03:24:47.090Z,20.56
2022-08-05T03:26:04.308Z,20.60
2022-08-05T03:26:49.447Z,20.63
2022-08-05T03:27:59.320Z,20.71
2022-08-05T03:28:46.363Z,20.72
2022-08-05T03:30:07.416Z,20.76
2022-08-05T03:30:46.332Z,20.78
2022-08-05T03:31:55.652Z,20.81
2022-08-05T03:32:46.326Z,20.85
2022-08-05T03:33:52.656Z,20.90
2022-08-05T03:34:50.568Z,20.93
2022-08-05T03:35:46.266Z,20.93
2022-08-05T03:36:45.264Z,20.97
2022-08-05T03:37:46.291Z,20.98
2022-08-05T03:38:53.171Z,21.00
2022-08-05T03:39:57.790Z,21.01
2022-08-05T03:40:48.462Z,21.01
2022-08-05T03:41:46.968Z,21.00
2022-08-05T03:42:52.136Z,21.00
2022-08-05T03:44:09.571Z,21.01
2022-08-05T03:44:46.135Z,20.97
2022-08-05T03:45:58.339Z,20.90
2022-08-05T03:46:46.112Z,20.90
2022-08-05T03:47:45.133Z,20.88
2022-08-05T03:48:45.250Z,20.91
2022-08-05T03:49:51.980Z,20.90
2022-08-05T03:50:46.059Z,20.85
2022-08-05T03:52:39.424Z,20.85
2022-08-05T03:55:00.446Z,20.66
2022-08-05T03:55:34.007Z,20.68
2022-08-05T03:55:34.419Z,20.75
2022-08-05T03:56:06.286Z,20.63
2022-08-05T03:56:46.282Z,20.60
2022-08-05T03:57:45.620Z,20.61
2022-08-05T03:58:44.973Z,20.68
2022-08-05T03:59:47.354Z,20.71
2022-08-05T04:00:51.299Z,20.73
2022-08-05T04:01:45.963Z,20.78
2022-08-05T04:02:51.874Z,20.82
2022-08-05T04:04:09.228Z,20.82
2022-08-05T04:04:45.897Z,20.82
2022-08-05T04:05:44.875Z,20.81
2022-08-05T04:06:47.787Z,20.79
2022-08-05T04:07:57.454Z,20.81
2022-08-05T04:08:45.833Z,20.79
2022-08-05T04:09:53.192Z,20.79
2022-08-05T04:10:45.798Z,20.81
2022-08-05T04:11:50.377Z,20.82
2022-08-05T04:13:15.737Z,20.83
2022-08-05T04:14:18.064Z,20.82
2022-08-05T04:15:15.783Z,20.82
2022-08-05T04:16:15.686Z,20.79
2022-08-05T04:17:16.680Z,20.82
2022-08-05T04:18:22.423Z,20.87
2022-08-05T04:19:16.665Z,20.87
2022-08-05T04:20:15.639Z,20.87
2022-08-05T04:22:05.272Z,20.85
2022-08-05T04:22:20.511Z,20.85
2022-08-05T04:23:16.134Z,20.88
2022-08-05T04:24:19.355Z,20.88
2022-08-05T04:25:16.578Z,20.90
2022-08-05T04:26:15.568Z,20.91
2022-08-05T04:27:15.569Z,20.94
2022-08-05T04:28:15.615Z,20.98
2022-08-05T04:29:15.526Z,20.98
2022-08-05T04:30:15.509Z,20.94
2022-08-05T04:31:15.485Z,20.91
2022-08-05T04:32:15.654Z,20.87
2022-08-05T04:33:16.490Z,20.78
2022-08-05T04:34:29.569Z,20.75
2022-08-05T04:35:19.552Z,20.73
2022-08-05T04:36:38.510Z,20.73
2022-08-05T04:37:16.479Z,20.76
2022-08-05T04:38:15.590Z,20.78
2022-08-05T04:39:15.452Z,20.79
2022-08-05T04:40:19.368Z,20.82
2022-08-05T04:41:15.361Z,20.81
2022-08-05T04:42:15.348Z,20.81
2022-08-05T04:43:16.487Z,20.76
2022-08-05T04:44:20.973Z,20.75
2022-08-05T04:45:23.098Z,20.78
2022-08-05T04:46:28.143Z,20.78
2022-08-05T04:47:20.090Z,20.78
2022-08-05T04:48:18.670Z,20.78
2022-08-05T04:49:16.252Z,20.78
2022-08-05T04:50:15.244Z,20.72
2022-08-05T04:51:16.222Z,20.71
2022-08-05T04:52:15.236Z,20.69
2022-08-05T04:53:15.212Z,20.68
2022-08-05T04:54:15.187Z,20.61
2022-08-05T04:55:15.461Z,20.57
2022-08-05T04:56:34.733Z,20.57
2022-08-05T04:57:16.199Z,20.53
2022-08-05T04:58:15.132Z,20.54
2022-08-05T04:59:24.131Z,20.53
2022-08-05T05:00:16.102Z,20.53
2022-08-05T05:01:15.228Z,20.51
2022-08-05T05:02:36.571Z,20.50
2022-08-05T05:03:16.910Z,20.48
2022-08-05T05:04:15.063Z,20.46
2022-08-05T05:05:26.074Z,20.42
2022-08-05T05:06:38.766Z,20.41
2022-08-05T05:07:16.094Z,20.40
2022-08-05T05:08:26.682Z,20.38
2022-08-05T05:09:17.716Z,20.40
2022-08-05T05:10:15.003Z,20.40
2022-08-05T05:11:15.193Z,20.41
2022-08-05T05:12:15.076Z,20.48
2022-08-05T05:13:14.944Z,20.51
2022-08-05T05:14:16.100Z,20.58
2022-08-05T05:15:17.508Z,20.60
2022-08-05T05:16:15.924Z,20.63
2022-08-05T05:17:14.863Z,20.68
2022-08-05T05:18:14.877Z,20.71
2022-08-05T05:19:19.345Z,20.71
2022-08-05T05:20:15.846Z,20.73
2022-08-05T05:21:14.834Z,20.78
2022-08-05T05:22:23.965Z,20.78
2022-08-05T05:23:19.927Z,20.78
2022-08-05T05:24:14.823Z,20.78
2022-08-05T05:25:16.504Z,20.78
2022-08-05T05:26:14.774Z,20.79
2022-08-05T05:27:14.743Z,20.85
2022-08-05T05:28:14.753Z,20.85
2022-08-05T05:29:15.088Z,20.83
2022-08-05T05:30:15.745Z,20.82
2022-08-05T05:31:15.795Z,20.81
2022-08-05T05:32:15.612Z,20.81
2022-08-05T05:33:17.074Z,20.82
2022-08-05T05:34:15.546Z,20.82
2022-08-05T05:35:20.005Z,20.85
2022-08-05T05:36:15.644Z,20.88
2022-08-05T05:37:14.649Z,20.90
2022-08-05T05:38:14.611Z,20.88
2022-08-05T05:39:14.673Z,20.90
2022-08-05T05:40:14.595Z,20.91
2022-08-05T05:41:16.438Z,20.91
2022-08-05T05:42:14.584Z,20.90
2022-08-05T05:43:14.533Z,20.94
2022-08-05T05:44:15.722Z,20.93
2022-08-05T05:45:15.502Z,20.85
2022-08-05T05:46:17.442Z,20.83
2022-08-05T05:47:21.653Z,20.82
2022-08-05T05:48:16.094Z,20.85
2022-08-05T05:49:22.913Z,20.90
2022-08-05T05:50:16.297Z,20.96
2022-08-05T05:51:15.511Z,20.97
2022-08-05T05:52:28.740Z,21.00
2022-08-05T05:53:22.541Z,21.03
2022-08-05T05:54:15.426Z,21.05
2022-08-05T05:55:14.412Z,21.03
2022-08-05T05:56:14.379Z,20.97
2022-08-05T05:57:24.276Z,20.94
2022-08-05T05:58:15.338Z,20.96
2022-08-05T05:59:16.064Z,20.91
2022-08-05T06:00:14.349Z,20.88
2022-08-05T06:01:15.358Z,20.90
2022-08-05T06:02:14.283Z,20.90
2022-08-05T06:03:40.854Z,20.90
2022-08-05T06:04:15.348Z,20.90
2022-08-05T06:05:16.678Z,20.85
2022-08-05T06:06:14.244Z,20.87
2022-08-05T06:07:14.240Z,20.90
2022-08-05T06:08:14.210Z,20.93
2022-08-05T06:09:17.710Z,20.94
2022-08-05T06:10:15.228Z,20.97
2022-08-05T06:11:14.162Z,20.94
2022-08-05T06:12:14.151Z,20.97
2022-08-05T06:13:14.157Z,20.98
2022-08-05T06:14:14.141Z,21.00
2022-08-05T06:15:24.154Z,21.01
2022-08-05T06:16:30.493Z,21.05
2022-08-05T06:17:22.446Z,21.03
2022-08-05T06:18:15.074Z,21.06
2022-08-05T06:19:14.079Z,21.05
2022-08-05T06:20:21.467Z,21.00
2022-08-05T06:21:16.797Z,20.98
2022-08-05T06:22:14.045Z,20.96
2022-08-05T06:23:14.019Z,20.90
2022-08-05T06:24:14.756Z,20.88
2022-08-05T06:25:59.252Z,20.85
2022-08-05T06:26:20.929Z,20.87
2022-08-05T06:28:09.375Z,20.85
2022-08-05T06:28:21.285Z,20.83
2022-08-05T06:29:24.946Z,20.85
2022-08-05T06:30:17.913Z,20.85
2022-08-05T06:31:17.921Z,20.87
2022-08-05T06:32:25.190Z,20.85
2022-08-05T06:33:18.980Z,20.85
2022-08-05T06:34:13.882Z,20.87
2022-08-05T06:35:15.531Z,20.83
2022-08-05T06:36:14.840Z,20.85
2022-08-05T06:37:13.841Z,20.82
2022-08-05T06:38:13.813Z,20.82
2022-08-05T06:39:13.845Z,20.85
2022-08-05T06:40:13.948Z,20.85
2022-08-05T06:41:13.766Z,20.83
2022-08-05T06:42:13.776Z,20.85
2022-08-05T06:43:51.693Z,20.82
2022-08-05T06:44:14.747Z,20.85
2022-08-05T06:45:21.195Z,20.85
2022-08-05T06:46:14.724Z,20.85
2022-08-05T06:47:29.994Z,20.83
2022-08-05T06:48:50.507Z,20.83
2022-08-05T06:49:14.690Z,20.85
2022-08-05T06:50:17.341Z,20.85
2022-08-05T06:51:26.683Z,20.85
2022-08-05T06:52:37.926Z,20.81
2022-08-05T06:53:22.568Z,20.81
2022-08-05T06:54:18.249Z,20.85
2022-08-05T06:55:13.613Z,20.82
2022-08-05T06:56:26.638Z,20.81
2022-08-05T06:58:03.751Z,20.78
2022-08-05T06:58:29.152Z,20.79
2022-08-05T06:59:14.553Z,20.76
2022-08-05T07:00:13.540Z,20.73
2022-08-05T07:01:14.579Z,20.73
2022-08-05T07:02:14.551Z,20.73
2022-08-05T07:03:13.486Z,20.75
2022-08-05T07:04:13.952Z,20.75
2022-08-05T07:05:18.596Z,20.79
2022-08-05T07:06:15.299Z,20.79
2022-08-05T07:07:13.452Z,20.79
2022-08-05T07:08:13.453Z,20.76
2022-08-05T07:09:13.913Z,20.75
2022-08-05T07:10:14.866Z,20.76
2022-08-05T07:11:15.466Z,20.76
2022-08-05T07:12:13.402Z,20.79
2022-08-05T07:13:13.462Z,20.79
2022-08-05T07:14:20.276Z,20.71
2022-08-05T07:15:14.329Z,20.72
2022-08-05T07:16:39.445Z,20.71
2022-08-05T07:17:58.905Z,20.73
2022-08-05T07:18:27.232Z,20.75
2022-08-05T07:19:15.464Z,20.76
2022-08-05T07:21:14.270Z,20.79
2022-08-05T07:22:14.260Z,20.79
2022-08-05T07:23:26.382Z,20.79
2022-08-05T07:24:14.231Z,20.79
2022-08-05T07:25:23.487Z,20.76
2022-08-05T07:26:15.039Z,20.79
2022-08-05T07:27:14.168Z,20.79
2022-08-05T07:28:17.387Z,20.78
2022-08-05T07:29:13.167Z,20.73
2022-08-05T07:30:27.919Z,20.68
2022-08-05T07:31:14.241Z,20.61
2022-08-05T07:32:13.108Z,20.60
2022-08-05T07:33:15.961Z,20.57
2022-08-05T07:34:13.998Z,20.48
2022-08-05T07:36:03.727Z,20.50
2022-08-05T07:36:20.916Z,20.50
2022-08-05T07:37:14.046Z,20.51
2022-08-05T07:38:32.924Z,20.50
2022-08-05T07:40:02.336Z,20.53
2022-08-05T07:40:31.404Z,20.51
2022-08-05T07:42:08.363Z,20.54
2022-08-05T07:42:16.265Z,20.53
2022-08-05T07:43:20.229Z,20.54
2022-08-05T07:44:18.398Z,20.56
2022-08-05T07:45:12.938Z,20.56
2022-08-05T07:46:24.647Z,20.51
2022-08-05T07:47:14.812Z,20.48
2022-08-05T07:48:12.899Z,20.48
2022-08-05T07:49:12.898Z,20.46
2022-08-05T07:50:12.877Z,20.40
2022-08-05T07:51:22.949Z,20.38
2022-08-05T07:52:13.871Z,20.33
2022-08-05T07:53:13.327Z,20.30
2022-08-05T07:54:12.835Z,20.26
2022-08-05T07:55:15.892Z,20.23
2022-08-05T07:57:00.125Z,20.25
2022-08-05T07:57:22.740Z,20.15
2022-08-05T07:58:54.493Z,20.12
2022-08-05T07:59:13.769Z,20.10
2022-08-05T08:00:12.747Z,20.05
2022-08-05T08:01:12.820Z,20.04
2022-08-05T08:02:16.934Z,20.02
2022-08-05T08:03:15.850Z,20.00
2022-08-05T08:04:12.754Z,19.97
2022-08-05T08:05:12.698Z,19.98
2022-08-05T08:06:12.699Z,19.94
2022-08-05T08:07:12.680Z,19.90
2022-08-05T08:08:12.646Z,19.95
2022-08-05T08:09:12.658Z,19.86
2022-08-05T08:10:12.627Z,19.85
2022-08-05T08:11:13.770Z,19.89
2022-08-05T08:12:48.630Z,19.92
2022-08-05T08:13:13.589Z,19.85
2022-08-05T08:14:18.203Z,19.72
2022-08-05T08:15:15.636Z,19.70
2022-08-05T08:16:49.719Z,19.61
2022-08-05T08:17:15.981Z,19.61
2022-08-05T08:18:14.414Z,19.64
2022-08-05T08:19:37.947Z,19.67
2022-08-05T08:20:44.402Z,19.64
2022-08-05T08:21:15.789Z,19.55
2022-08-05T08:22:15.996Z,19.53
2022-08-05T08:24:02.938Z,19.52
2022-08-05T08:24:14.114Z,19.55
2022-08-05T08:25:16.238Z,19.52
2022-08-05T08:26:12.428Z,19.47
2022-08-05T08:27:20.709Z,19.46
2022-08-05T08:28:18.650Z,19.43
2022-08-05T08:29:45.339Z,19.43
2022-08-05T08:30:19.015Z,19.42
2022-08-05T08:31:15.076Z,19.42
2022-08-05T08:32:12.371Z,19.42
2022-08-05T08:33:13.732Z,19.39
2022-08-05T08:34:12.371Z,19.30
2022-08-05T08:35:13.370Z,19.38
2022-08-05T08:36:40.184Z,19.40
2022-08-05T08:37:13.309Z,19.40
2022-08-05T08:38:16.455Z,19.31
2022-08-05T08:39:15.862Z,19.30
2022-08-05T08:40:12.281Z,19.30
2022-08-05T08:41:13.958Z,19.28
2022-08-05T08:42:32.488Z,19.34
2022-08-05T08:45:16.227Z,19.42
2022-08-05T08:45:16.543Z,19.47
2022-08-05T08:45:22.306Z,19.52
2022-08-05T08:46:15.598Z,19.50
2022-08-05T08:47:21.623Z,19.52
2022-08-05T08:48:42.996Z,19.53
2022-08-05T08:50:05.703Z,19.43
2022-08-05T08:50:32.784Z,19.43
2022-08-05T08:52:02.377Z,19.35
2022-08-05T08:52:13.943Z,19.38
2022-08-05T08:53:12.586Z,19.40
2022-08-05T08:54:13.751Z,19.35
2022-08-05T08:55:13.323Z,19.31
2022-08-05T08:56:12.035Z,19.34
2022-08-05T08:57:13.342Z,19.28
2022-08-05T08:58:13.111Z,19.28
2022-08-05T08:59:19.197Z,19.30
2022-08-05T09:00:13.000Z,19.27
2022-08-05T09:01:16.483Z,19.25
2022-08-05T09:02:12.980Z,19.21
2022-08-05T09:03:11.935Z,19.24
2022-08-05T09:04:11.933Z,19.27
2022-08-05T09:05:17.460Z,19.24
2022-08-05T09:06:17.141Z,19.25
2022-08-05T09:07:28.188Z,19.27
2022-08-05T09:08:12.874Z,19.23
2022-08-05T09:09:11.877Z,19.16
2022-08-05T09:10:12.799Z,19.23
2022-08-05T09:11:13.678Z,19.23
2022-08-05T09:12:20.441Z,19.16
2022-08-05T09:13:12.815Z,19.13
2022-08-05T09:14:57.153Z,19.15
2022-08-05T09:15:12.810Z,19.16
2022-08-05T09:16:14.657Z,19.17
2022-08-05T09:17:40.199Z,19.10
2022-08-05T09:18:13.404Z,19.07
2022-08-05T09:19:12.040Z,19.05
2022-08-05T09:20:11.735Z,19.06
2022-08-05T09:21:21.193Z,19.06
2022-08-05T09:22:30.917Z,19.06
2022-08-05T09:23:18.657Z,19.06
2022-08-05T09:24:12.674Z,19.10
2022-08-05T09:25:13.755Z,19.13
2022-08-05T09:26:20.545Z,19.17
2022-08-05T09:27:12.673Z,19.16
2022-08-05T09:28:13.026Z,19.20
2022-08-05T09:29:11.613Z,19.16
2022-08-05T09:30:16.537Z,19.12
2022-08-05T09:31:43.824Z,19.15
2022-08-05T09:32:40.851Z,19.16
2022-08-05T09:33:15.299Z,19.20
2022-08-05T09:34:11.612Z,19.23
2022-08-05T09:35:11.644Z,19.28
2022-08-05T09:36:16.287Z,19.30
2022-08-05T09:37:14.988Z,19.24
2022-08-05T09:38:12.515Z,19.24
2022-08-05T09:39:16.608Z,19.25
2022-08-05T09:40:12.539Z,19.32
2022-08-05T09:41:11.453Z,19.35
2022-08-05T09:42:17.347Z,19.27
2022-08-05T09:43:12.449Z,19.20
2022-08-05T09:44:11.427Z,19.09
2022-08-05T09:46:04.719Z,19.09
2022-08-05T09:46:12.395Z,19.15
2022-08-05T09:47:12.469Z,19.17
2022-08-05T09:48:11.384Z,19.17
2022-08-05T09:49:19.564Z,19.16
2022-08-05T09:50:12.332Z,18.94
2022-08-05T09:51:15.136Z,18.89
2022-08-05T09:52:11.316Z,18.96
2022-08-05T09:53:25.737Z,18.93
2022-08-05T09:54:12.281Z,18.94
2022-08-05T09:55:56.715Z,18.96
2022-08-05T09:56:13.099Z,18.86
2022-08-05T09:57:23.399Z,18.82
2022-08-05T09:58:12.230Z,18.78
2022-08-05T09:59:11.332Z,18.71
2022-08-05T10:00:12.211Z,18.68
2022-08-05T10:01:14.822Z,18.75
2022-08-05T10:02:11.245Z,18.71
2022-08-05T10:03:11.177Z,18.74
2022-08-05T10:04:11.145Z,18.75
2022-08-05T10:05:11.150Z,18.71
2022-08-05T10:06:15.485Z,18.72
2022-08-05T10:07:19.832Z,18.69
2022-08-05T10:08:37.749Z,18.78
2022-08-05T10:09:24.984Z,18.89
2022-08-05T10:10:14.958Z,18.99
2022-08-05T10:11:11.077Z,19.07
2022-08-05T10:12:18.949Z,19.01
2022-08-05T10:13:12.051Z,19.01
2022-08-05T10:14:11.096Z,19.01
2022-08-05T10:15:11.027Z,19.05
2022-08-05T10:16:11.046Z,19.13
2022-08-05T10:17:36.878Z,19.12
2022-08-05T10:18:11.968Z,19.15
2022-08-05T10:19:11.776Z,19.17
2022-08-05T10:20:11.980Z,19.17
2022-08-05T10:21:15.753Z,19.23
2022-08-05T10:22:15.695Z,19.25
2022-08-05T10:23:34.209Z,19.28
2022-08-05T10:24:11.893Z,19.30
2022-08-05T10:25:10.888Z,19.31
2022-08-05T10:26:13.871Z,19.16
2022-08-05T10:27:10.867Z,19.20
2022-08-05T10:28:17.299Z,19.23
2022-08-05T10:29:11.846Z,19.16
2022-08-05T10:32:46.946Z,19.16
2022-08-05T10:32:52.051Z,19.15
2022-08-05T10:32:53.045Z,19.25
2022-08-05T10:33:14.734Z,19.32
2022-08-05T10:34:10.780Z,19.31
2022-08-05T10:35:10.771Z,19.31
2022-08-05T10:36:10.735Z,19.40
2022-08-05T10:37:10.729Z,19.50
2022-08-05T10:38:11.727Z,19.53
2022-08-05T10:39:15.261Z,19.57
2022-08-05T10:40:18.064Z,19.64
2022-08-05T10:41:12.463Z,19.75
2022-08-05T10:42:11.367Z,19.85
2022-08-05T10:43:12.425Z,19.95
2022-08-05T10:44:10.657Z,20.07
2022-08-05T10:45:23.275Z,20.13
2022-08-05T10:46:11.828Z,20.25
2022-08-05T10:47:26.506Z,20.34
2022-08-05T10:48:31.005Z,20.41
2022-08-05T10:49:16.410Z,20.44
2022-08-05T10:50:31.901Z,20.41
2022-08-05T10:51:22.101Z,20.37
2022-08-05T10:52:11.529Z,20.42
2022-08-05T10:53:10.536Z,20.46
2022-08-05T10:54:28.518Z,20.53
2022-08-05T10:55:11.489Z,20.44
2022-08-05T10:56:21.163Z,20.30
2022-08-05T10:57:11.468Z,20.20
2022-08-05T10:58:11.462Z,20.19
2022-08-05T10:59:12.569Z,20.19
2022-08-05T11:00:16.385Z,20.13
2022-08-05T11:01:11.553Z,20.16
2022-08-05T11:02:14.653Z,20.22
2022-08-05T11:03:24.501Z,20.30
2022-08-05T11:04:11.400Z,20.33
2022-08-05T11:05:10.424Z,20.30
2022-08-05T11:06:15.301Z,20.35
2022-08-05T11:07:11.358Z,20.35
2022-08-05T11:08:33.649Z,20.22
2022-08-05T11:09:13.203Z,20.19
2022-08-05T11:10:11.275Z,20.19
2022-08-05T11:11:16.483Z,20.30
2022-08-05T11:12:11.268Z,20.44
2022-08-05T11:13:10.243Z,20.61
2022-08-05T11:14:10.254Z,20.73
2022-08-05T11:15:19.197Z,20.83
2022-08-05T11:16:11.238Z,20.94
2022-08-05T11:17:56.852Z,21.09
2022-08-05T11:18:11.733Z,21.09
2022-08-05T11:20:10.006Z,21.15
2022-08-05T11:20:18.221Z,21.24
2022-08-05T11:21:12.086Z,21.18
2022-08-05T11:22:10.123Z,21.18
2022-08-05T11:23:10.563Z,21.16
2022-08-05T11:24:14.661Z,21.24
2022-08-05T11:26:03.386Z,21.28
2022-08-05T11:26:11.070Z,21.36
2022-08-05T11:27:10.055Z,21.38
2022-08-05T11:28:10.042Z,21.42
2022-08-05T11:29:13.283Z,21.42
2022-08-05T11:30:10.455Z,21.52
2022-08-05T11:31:10.032Z,21.53
2022-08-05T11:32:10.033Z,21.59
2022-08-05T11:33:13.797Z,21.56
2022-08-05T11:34:14.883Z,21.61
2022-08-05T11:35:09.982Z,21.58
2022-08-05T11:36:10.956Z,21.64
2022-08-05T11:38:28.625Z,21.63
2022-08-05T11:38:30.851Z,21.63
2022-08-05T11:39:10.974Z,21.56
2022-08-05T11:40:09.906Z,21.52
2022-08-05T11:41:34.137Z,21.53
2022-08-05T11:42:10.860Z,21.56
2022-08-05T11:43:10.867Z,21.48
2022-08-05T11:44:09.887Z,21.43
2022-08-05T11:45:14.420Z,21.46
2022-08-05T11:46:23.384Z,21.56
2022-08-05T11:47:15.203Z,21.58
2022-08-05T11:48:11.599Z,21.56
2022-08-05T11:49:10.155Z,21.53
2022-08-05T11:50:09.775Z,21.58
2022-08-05T11:51:10.812Z,21.67
2022-08-05T11:52:11.611Z,21.64
2022-08-05T11:53:09.839Z,21.55
2022-08-05T11:54:09.763Z,21.52
2022-08-05T11:55:10.588Z,21.48
2022-08-05T11:56:11.360Z,21.51
2022-08-05T11:57:24.876Z,21.52
2022-08-05T11:58:12.024Z,21.56
2022-08-05T11:59:13.829Z,21.66
2022-08-05T12:00:09.643Z,21.77
2022-08-05T12:01:10.427Z,21.90
2022-08-05T12:02:23.677Z,22.02
2022-08-05T12:03:10.618Z,22.08
2022-08-05T12:04:09.624Z,22.06
2022-08-05T12:05:17.799Z,22.05
2022-08-05T12:06:10.822Z,22.05
2022-08-05T12:07:09.567Z,21.96
2022-08-05T12:08:11.452Z,21.77
2022-08-05T12:09:09.533Z,21.66
2022-08-05T12:10:11.591Z,21.70
2022-08-05T12:11:09.508Z,21.77
2022-08-05T12:12:10.494Z,21.79
2022-08-05T12:13:16.890Z,21.77
2022-08-05T12:14:10.614Z,21.73
2022-08-05T12:15:11.198Z,21.79
2022-08-05T12:16:14.388Z,21.85
2022-08-05T12:18:02.693Z,21.96
2022-08-05T12:18:12.075Z,22.08
2022-08-05T12:19:09.463Z,22.09
2022-08-05T12:20:27.202Z,22.09
2022-08-05T12:21:10.396Z,22.08
2022-08-05T12:22:09.651Z,22.05
2022-08-05T12:23:13.217Z,22.09
2022-08-05T12:24:09.424Z,22.23
2022-08-05T12:25:09.333Z,22.35
2022-08-05T12:26:10.311Z,22.52
2022-08-05T12:27:09.910Z,22.52
2022-08-05T12:28:10.325Z,22.59
2022-08-05T12:29:15.978Z,22.66
2022-08-05T12:30:10.619Z,22.74
2022-08-05T12:31:10.277Z,22.82
2022-08-05T12:32:10.235Z,22.85
2022-08-05T12:33:27.090Z,22.85
2022-08-05T12:34:20.696Z,22.78
2022-08-05T12:35:10.194Z,22.69
2022-08-05T12:36:09.591Z,22.46
2022-08-05T12:37:09.192Z,22.44
2022-08-05T12:38:10.917Z,22.48
2022-08-05T12:39:09.181Z,22.52
2022-08-05T12:40:10.752Z,22.57
2022-08-05T12:41:13.218Z,22.46
2022-08-05T12:42:09.105Z,22.39
2022-08-05T12:43:10.172Z,22.41
2022-08-05T12:44:11.448Z,22.41
2022-08-05T12:45:09.729Z,22.46
2022-08-05T12:46:12.343Z,22.48
2022-08-05T12:47:12.523Z,22.46
2022-08-05T12:48:27.034Z,22.42
2022-08-05T12:49:13.853Z,22.42
2022-08-05T12:50:10.512Z,22.45
2022-08-05T12:51:09.052Z,22.41
2022-08-05T12:52:17.582Z,22.38
2022-08-05T12:53:09.953Z,22.39
2022-08-05T12:54:16.654Z,22.41